createdAt,value
2022-07-29T00:01:50.701Z,4.63
2022-07-29T00:04:17.801Z,4.35
2022-07-29T00:06:44.765Z,5.63
2022-07-29T00:09:11.386Z,4.93
2022-07-29T00:11:38.088Z,4.88
2022-07-29T00:14:04.710Z,4.57
2022-07-29T00:16:31.396Z,4.85
2022-07-29T00:19:01.900Z,4.72
2022-07-29T00:21:29.001Z,4.88
2022-07-29T00:23:55.638Z,4.80
2022-07-29T00:26:22.244Z,4.60
2022-07-29T00:28:48.838Z,4.60
2022-07-29T00:31:15.535Z,4.45
2022-07-29T00:33:42.140Z,4.55
2022-07-29T00:36:08.779Z,5.03
2022-07-29T00:38:35.391Z,4.85
2022-07-29T00:41:02.298Z,5.10
2022-07-29T00:43:28.938Z,5.15
2022-07-29T00:45:55.564Z,5.40
2022-07-29T00:48:22.153Z,4.75
2022-07-29T00:50:48.784Z,5.45
2022-07-29T00:53:15.435Z,5.32
2022-07-29T00:55:42.088Z,5.90
2022-07-29T00:58:08.703Z,5.82
2022-07-29T01:00:35.472Z,5.35
2022-07-29T01:03:02.122Z,5.35
2022-07-29T01:05:50.788Z,5.57
2022-07-29T01:08:17.919Z,5.90
2022-07-29T01:10:44.565Z,5.65
2022-07-29T01:13:11.172Z,6.25
2022-07-29T01:15:57.933Z,6.47
2022-07-29T01:18:32.117Z,5.25
2022-07-29T01:21:19.289Z,5.32
2022-07-29T01:24:15.297Z,5.63
2022-07-29T01:27:05.969Z,5.63
2022-07-29T01:29:38.630Z,5.55
2022-07-29T01:32:22.535Z,5.60
2022-07-29T01:35:13.883Z,5.82
2022-07-29T01:38:02.854Z,5.50
2022-07-29T01:40:35.904Z,5.65
2022-07-29T01:43:07.387Z,5.40
2022-07-29T01:45:42.065Z,5.80
2022-07-29T01:48:19.531Z,5.88
2022-07-29T01:51:00.047Z,6.22
2022-07-29T01:53:38.935Z,5.80
2022-07-29T01:56:06.279Z,6.03
2022-07-29T01:58:32.919Z,6.45
2022-07-29T02:01:00.006Z,6.55
2022-07-29T02:03:27.187Z,6.20
2022-07-29T02:05:53.923Z,5.75
2022-07-29T02:08:20.906Z,5.57
2022-07-29T02:10:48.844Z,6.10
2022-07-29T02:13:16.385Z,5.75
2022-07-29T02:15:44.480Z,5.90
2022-07-29T02:18:18.797Z,6.70
2022-07-29T02:20:49.819Z,6.32
2022-07-29T02:23:24.130Z,6.22
2022-07-29T02:25:54.130Z,5.95
2022-07-29T02:28:21.494Z,6.35
2022-07-29T02:30:48.185Z,6.65
2022-07-29T02:33:15.880Z,6.38
2022-07-29T02:35:43.031Z,6.75
2022-07-29T02:38:30.311Z,7.25
2022-07-29T02:40:56.954Z,6.68
2022-07-29T02:43:23.527Z,6.38
2022-07-29T02:45:52.024Z,5.93
2022-07-29T02:48:19.478Z,6.18
2022-07-29T02:50:50.129Z,6.45
2022-07-29T02:53:21.004Z,7.22
2022-07-29T02:55:50.706Z,6.63
2022-07-29T02:58:29.369Z,6.82
2022-07-29T03:01:02.531Z,7.78
2022-07-29T03:03:31.225Z,6.63
2022-07-29T03:05:58.422Z,6.88
2022-07-29T03:08:25.011Z,6.97
2022-07-29T03:10:51.630Z,6.40
2022-07-29T03:13:18.269Z,6.75
2022-07-29T03:15:45.414Z,6.47
2022-07-29T03:18:12.043Z,6.97
2022-07-29T03:20:39.694Z,7.28
2022-07-29T03:23:06.554Z,7.95
2022-07-29T03:25:33.184Z,7.70
2022-07-29T03:28:00.155Z,7.07
2022-07-29T03:30:26.868Z,7.32
2022-07-29T03:32:54.323Z,7.13
2022-07-29T03:35:23.683Z,6.93
2022-07-29T03:37:50.341Z,6.82
2022-07-29T03:40:29.118Z,7.30
2022-07-29T03:42:55.966Z,7.63
2022-07-29T03:45:22.688Z,7.43
2022-07-29T03:47:59.957Z,6.93
2022-07-29T03:50:27.569Z,7.78
2022-07-29T03:52:54.185Z,8.15
2022-07-29T03:55:20.821Z,6.88
2022-07-29T03:57:48.341Z,7.43
2022-07-29T04:00:16.524Z,7.32
2022-07-29T04:02:47.952Z,7.47
2022-07-29T04:05:15.665Z,7.60
2022-07-29T04:07:45.776Z,7.18
2022-07-29T04:10:12.547Z,7.00
2022-07-29T04:12:39.163Z,6.88
2022-07-29T04:15:06.136Z,6.88
2022-07-29T04:17:32.746Z,6.72
2022-07-29T04:19:59.353Z,6.80
2022-07-29T04:22:25.969Z,7.25
2022-07-29T04:24:54.035Z,6.93
2022-07-29T04:27:20.661Z,6.80
2022-07-29T04:29:56.667Z,6.97
2022-07-29T04:32:24.985Z,7.45
2022-07-29T04:34:51.623Z,7.32
2022-07-29T04:37:18.263Z,7.55
2022-07-29T04:39:44.826Z,7.78
2022-07-29T04:42:11.419Z,8.18
2022-07-29T04:44:39.454Z,8.25
2022-07-29T04:47:08.864Z,8.52
2022-07-29T04:49:35.539Z,8.40
2022-07-29T04:52:02.193Z,7.60
2022-07-29T04:54:28.776Z,8.20
2022-07-29T04:56:55.376Z,7.13
2022-07-29T04:59:22.044Z,8.07
2022-07-29T05:01:48.781Z,7.78
2022-07-29T05:04:15.703Z,7.78
2022-07-29T05:06:42.546Z,6.85
2022-07-29T05:09:09.152Z,6.88
2022-07-29T05:11:35.766Z,6.95
2022-07-29T05:14:02.382Z,6.47
2022-07-29T05:16:29.876Z,6.40
2022-07-29T05:18:56.499Z,6.75
2022-07-29T05:21:23.096Z,6.63
2022-07-29T05:23:49.726Z,6.78
2022-07-29T05:26:16.415Z,6.25
2022-07-29T05:28:43.014Z,7.35
2022-07-29T05:31:09.693Z,5.82
2022-07-29T05:33:37.196Z,6.68
2022-07-29T05:36:07.901Z,6.10
2022-07-29T05:38:35.741Z,6.07
2022-07-29T05:41:02.413Z,5.68
2022-07-29T05:43:29.321Z,5.75
2022-07-29T05:45:56.233Z,6.25
2022-07-29T05:48:22.935Z,5.88
2022-07-29T05:50:49.549Z,6.00
2022-07-29T05:53:19.353Z,5.38
2022-07-29T05:55:46.980Z,5.38
2022-07-29T05:58:13.569Z,4.97
2022-07-29T06:00:40.188Z,4.95
2022-07-29T06:03:06.834Z,4.60
2022-07-29T06:05:33.392Z,4.97
2022-07-29T06:08:00.055Z,4.57
2022-07-29T06:10:27.109Z,5.30
2022-07-29T06:12:54.026Z,4.32
2022-07-29T06:15:20.755Z,4.88
2022-07-29T06:18:00.702Z,3.90
2022-07-29T06:20:32.312Z,4.40
2022-07-29T06:22:59.661Z,4.03
2022-07-29T06:25:26.621Z,5.00
2022-07-29T06:27:53.386Z,3.45
2022-07-29T06:30:20.013Z,3.10
2022-07-29T06:32:46.602Z,2.78
2022-07-29T06:35:38.454Z,2.47
2022-07-29T06:38:00.013Z,2.53
2022-07-29T06:40:45.414Z,2.40
2022-07-29T06:43:12.026Z,2.15
2022-07-29T06:45:42.269Z,2.67
2022-07-29T06:48:09.619Z,2.55
2022-07-29T06:50:36.297Z,2.60
2022-07-29T06:53:02.895Z,2.22
2022-07-29T06:55:29.508Z,2.30
2022-07-29T06:57:56.103Z,2.33
2022-07-29T07:00:22.762Z,2.20
2022-07-29T07:02:49.497Z,2.70
2022-07-29T07:05:16.157Z,2.28
2022-07-29T07:07:42.745Z,2.40
2022-07-29T07:10:09.652Z,2.28
2022-07-29T07:12:36.274Z,1.98
2022-07-29T07:15:03.069Z,2.47
2022-07-29T07:17:29.688Z,2.63
2022-07-29T07:19:56.293Z,2.10
2022-07-29T07:22:22.964Z,2.28
2022-07-29T07:24:49.574Z,2.63
2022-07-29T07:27:16.185Z,2.80
2022-07-29T07:29:44.226Z,2.70
2022-07-29T07:32:11.305Z,2.35
2022-07-29T07:34:39.023Z,2.20
2022-07-29T07:37:06.328Z,2.47
2022-07-29T07:39:33.011Z,3.13
2022-07-29T07:41:59.854Z,2.90
2022-07-29T07:44:26.498Z,2.60
2022-07-29T07:46:53.466Z,2.83
2022-07-29T07:49:21.475Z,3.00
2022-07-29T07:51:50.933Z,3.30
2022-07-29T07:54:18.712Z,2.58
2022-07-29T07:56:50.331Z,2.53
2022-07-29T07:59:19.883Z,2.47
2022-07-29T08:01:48.370Z,2.60
2022-07-29T08:04:27.469Z,3.00
2022-07-29T08:06:55.333Z,2.63
2022-07-29T08:09:29.130Z,2.40
2022-07-29T08:11:57.092Z,2.83
2022-07-29T08:14:23.745Z,2.83
2022-07-29T08:16:50.494Z,3.03
2022-07-29T08:19:17.198Z,2.78
2022-07-29T08:21:43.916Z,2.85
2022-07-29T08:24:28.705Z,2.58
2022-07-29T08:26:55.317Z,3.25
2022-07-29T08:29:21.906Z,3.20
2022-07-29T08:31:48.656Z,2.95
2022-07-29T08:34:15.364Z,3.30
2022-07-29T08:36:42.008Z,3.05
2022-07-29T08:39:08.640Z,3.10
2022-07-29T08:41:35.268Z,2.80
2022-07-29T08:44:01.849Z,3.00
2022-07-29T08:46:28.508Z,3.08
2022-07-29T08:48:55.145Z,3.08
2022-07-29T08:51:22.284Z,3.10
2022-07-29T08:53:50.579Z,2.70
2022-07-29T08:56:19.067Z,3.10
2022-07-29T08:58:50.665Z,2.92
2022-07-29T09:01:23.413Z,3.45
2022-07-29T09:04:05.924Z,2.90
2022-07-29T09:06:36.530Z,2.42
2022-07-29T09:09:03.711Z,2.72
2022-07-29T09:11:30.397Z,2.80
2022-07-29T09:13:57.020Z,3.92
2022-07-29T09:16:50.822Z,2.72
2022-07-29T09:19:24.223Z,3.17
2022-07-29T09:21:59.961Z,2.90
2022-07-29T09:24:48.477Z,3.25
2022-07-29T09:27:27.539Z,3.25
2022-07-29T09:30:01.110Z,2.60
2022-07-29T09:32:28.304Z,2.92
2022-07-29T09:35:23.604Z,2.60
2022-07-29T09:37:50.472Z,2.75
2022-07-29T09:40:18.872Z,2.65
2022-07-29T09:42:45.947Z,3.40
2022-07-29T09:45:12.972Z,3.20
2022-07-29T09:47:48.372Z,2.85
2022-07-29T09:50:15.153Z,2.72
2022-07-29T09:52:50.689Z,3.17
2022-07-29T09:55:18.260Z,3.05
2022-07-29T09:57:45.925Z,3.38
2022-07-29T10:00:12.850Z,3.10
2022-07-29T10:02:40.887Z,3.55
2022-07-29T10:05:36.698Z,3.40
2022-07-29T10:08:03.894Z,3.08
2022-07-29T10:10:32.930Z,3.70
2022-07-29T10:13:12.164Z,3.38
2022-07-29T10:15:45.325Z,2.92
2022-07-29T10:18:13.345Z,2.70
2022-07-29T10:20:40.686Z,3.72
2022-07-29T10:23:07.299Z,3.38
2022-07-29T10:25:34.022Z,3.70
2022-07-29T10:28:00.774Z,3.05
2022-07-29T10:30:27.811Z,3.53
2022-07-29T10:33:19.569Z,3.10
2022-07-29T10:36:01.564Z,3.35
2022-07-29T10:39:07.346Z,3.08
2022-07-29T10:41:44.722Z,2.88
2022-07-29T10:44:23.248Z,3.10
2022-07-29T10:46:51.723Z,3.80
2022-07-29T10:49:25.240Z,3.50
2022-07-29T10:51:52.020Z,3.25
2022-07-29T10:54:19.277Z,3.53
2022-07-29T10:56:46.902Z,3.50
2022-07-29T10:59:21.629Z,3.67
2022-07-29T11:01:53.628Z,4.10
2022-07-29T11:04:47.249Z,3.90
2022-07-29T11:07:17.445Z,3.17
2022-07-29T11:09:46.499Z,3.33
2022-07-29T11:12:39.398Z,4.20
2022-07-29T11:15:07.981Z,3.97
2022-07-29T11:17:53.315Z,4.10
2022-07-29T11:20:45.912Z,3.75
2022-07-29T11:23:20.484Z,4.15
2022-07-29T11:26:33.497Z,4.38
2022-07-29T11:29:16.487Z,4.65
2022-07-29T11:34:23.174Z,3.97
2022-07-29T11:37:16.016Z,4.72
2022-07-29T11:40:01.998Z,6.22
2022-07-29T11:42:33.085Z,6.32
2022-07-29T11:45:44.187Z,5.80
2022-07-29T11:50:48.293Z,6.18
2022-07-29T11:53:15.398Z,5.75
2022-07-29T11:55:51.083Z,4.72
2022-07-29T11:58:25.256Z,4.72
2022-07-29T12:00:52.843Z,4.53
2022-07-29T12:03:33.475Z,4.30
2022-07-29T12:06:03.632Z,5.07
2022-07-29T12:08:30.216Z,4.07
2022-07-29T12:10:56.904Z,4.53
2022-07-29T12:13:37.638Z,4.22
2022-07-29T12:16:05.339Z,4.88
2022-07-29T12:18:32.598Z,4.43
2022-07-29T12:21:06.307Z,3.78
2022-07-29T12:23:34.342Z,3.92
2022-07-29T12:26:04.947Z,3.97
2022-07-29T12:28:40.371Z,4.55
2022-07-29T12:31:08.174Z,3.97
2022-07-29T12:33:36.065Z,3.60
2022-07-29T12:36:07.487Z,3.65
2022-07-29T12:38:36.139Z,3.13
2022-07-29T12:41:04.544Z,2.75
2022-07-29T12:43:31.504Z,2.30
2022-07-29T12:45:58.527Z,2.00
2022-07-29T12:48:37.883Z,1.88
2022-07-29T12:51:06.017Z,1.85
2022-07-29T12:53:32.846Z,1.63
2022-07-29T12:56:08.037Z,1.63
2022-07-29T12:58:42.844Z,1.30
2022-07-29T13:01:17.992Z,1.50
2022-07-29T13:04:00.874Z,1.63
2022-07-29T13:06:41.675Z,2.00
2022-07-29T13:09:12.008Z,1.85
2022-07-29T13:11:48.347Z,1.80
2022-07-29T13:14:34.777Z,2.85
2022-07-29T13:17:13.320Z,2.00
2022-07-29T13:19:44.443Z,2.30
2022-07-29T13:22:13.122Z,2.00
2022-07-29T13:24:50.866Z,2.25
2022-07-29T13:27:24.788Z,1.95
2022-07-29T13:29:55.473Z,2.05
2022-07-29T13:32:28.421Z,1.90
2022-07-29T13:34:56.744Z,2.35
2022-07-29T13:37:23.344Z,2.55
2022-07-29T13:39:51.311Z,2.60
2022-07-29T13:42:19.954Z,3.45
2022-07-29T13:44:46.588Z,3.13
2022-07-29T13:47:13.804Z,3.30
2022-07-29T13:49:40.383Z,3.38
2022-07-29T13:52:08.439Z,3.13
2022-07-29T13:54:42.097Z,3.65
2022-07-29T13:57:09.317Z,3.72
2022-07-29T13:59:36.215Z,3.33
2022-07-29T14:02:03.319Z,3.75
2022-07-29T14:04:30.076Z,4.47
2022-07-29T14:06:56.784Z,4.07
2022-07-29T14:09:23.838Z,4.15
2022-07-29T14:11:52.399Z,3.85
2022-07-29T14:14:18.995Z,3.65
2022-07-29T14:16:49.215Z,4.00
2022-07-29T14:19:18.857Z,4.18
2022-07-29T14:21:46.441Z,3.80
2022-07-29T14:24:16.274Z,4.00
2022-07-29T14:26:48.084Z,3.58
2022-07-29T14:29:14.779Z,3.35
2022-07-29T14:31:41.534Z,3.88
2022-07-29T14:34:08.196Z,3.60
2022-07-29T14:36:34.812Z,3.78
2022-07-29T14:39:01.475Z,3.65
2022-07-29T14:41:29.287Z,4.15
2022-07-29T14:43:55.955Z,3.50
2022-07-29T14:46:22.747Z,4.30
2022-07-29T14:48:49.627Z,4.63
2022-07-29T14:51:16.592Z,4.93
2022-07-29T14:53:43.183Z,4.57
2022-07-29T14:56:34.283Z,5.07
2022-07-29T14:58:59.649Z,4.88
2022-07-29T15:01:26.283Z,4.90
2022-07-29T15:03:55.749Z,4.75
2022-07-29T15:06:26.137Z,4.70
2022-07-29T15:08:52.789Z,4.57
2022-07-29T15:11:19.424Z,4.60
2022-07-29T15:13:46.034Z,4.20
2022-07-29T15:16:12.814Z,4.50
2022-07-29T15:18:39.575Z,4.35
2022-07-29T15:21:07.931Z,4.30
2022-07-29T15:23:37.260Z,4.65
2022-07-29T15:26:04.883Z,4.28
2022-07-29T15:28:31.548Z,4.20
2022-07-29T15:30:58.229Z,3.67
2022-07-29T15:33:24.950Z,4.10
2022-07-29T15:35:51.611Z,4.15
2022-07-29T15:38:18.595Z,4.20
2022-07-29T15:40:46.594Z,4.05
2022-07-29T15:43:13.479Z,3.78
2022-07-29T15:45:41.909Z,4.40
2022-07-29T15:48:09.542Z,4.07
2022-07-29T15:50:36.279Z,3.97
2022-07-29T15:53:03.240Z,4.32
2022-07-29T15:55:29.928Z,4.28
2022-07-29T15:58:00.484Z,4.20
2022-07-29T16:00:27.407Z,4.35
2022-07-29T16:02:54.049Z,4.28
2022-07-29T16:05:20.683Z,4.72
2022-07-29T16:07:47.326Z,4.20
2022-07-29T16:10:14.028Z,4.20
2022-07-29T16:12:40.635Z,5.28
2022-07-29T16:15:10.360Z,4.03
2022-07-29T16:17:38.078Z,4.38
2022-07-29T16:20:06.072Z,4.07
2022-07-29T16:22:32.830Z,3.75
2022-07-29T16:24:59.477Z,4.55
2022-07-29T16:27:34.291Z,4.75
2022-07-29T16:30:04.621Z,3.63
2022-07-29T16:32:31.277Z,3.90
2022-07-29T16:34:58.663Z,3.80
2022-07-29T16:37:25.310Z,4.18
2022-07-29T16:39:55.527Z,4.15
2022-07-29T16:42:44.271Z,4.13
2022-07-29T16:45:09.364Z,4.28
2022-07-29T16:47:36.342Z,4.28
2022-07-29T16:50:03.151Z,4.18
2022-07-29T16:52:29.751Z,3.63
2022-07-29T16:54:56.383Z,3.95
2022-07-29T16:57:23.440Z,3.72
2022-07-29T16:59:51.057Z,4.30
2022-07-29T17:02:18.112Z,4.25
2022-07-29T17:04:44.819Z,4.13
2022-07-29T17:07:11.763Z,3.97
2022-07-29T17:09:38.398Z,4.00
2022-07-29T17:12:05.454Z,4.30
2022-07-29T17:14:32.315Z,4.28
2022-07-29T17:17:02.008Z,5.25
2022-07-29T17:19:31.189Z,4.57
2022-07-29T17:22:05.026Z,4.75
2022-07-29T17:24:35.802Z,4.25
2022-07-29T17:27:02.450Z,4.30
2022-07-29T17:29:29.067Z,4.30
2022-07-29T17:31:55.739Z,4.20
2022-07-29T17:34:22.581Z,4.25
2022-07-29T17:36:49.201Z,4.28
2022-07-29T17:39:15.789Z,4.13
2022-07-29T17:41:42.557Z,4.00
2022-07-29T17:44:09.526Z,4.32
2022-07-29T17:46:36.541Z,4.25
2022-07-29T17:49:03.876Z,3.92
2022-07-29T17:51:30.613Z,4.38
2022-07-29T17:53:58.301Z,4.20
2022-07-29T17:56:25.766Z,4.00
2022-07-29T17:58:52.777Z,4.22
2022-07-29T18:01:19.569Z,4.35
2022-07-29T18:03:47.007Z,4.25
2022-07-29T18:06:13.691Z,4.20
2022-07-29T18:08:40.402Z,4.30
2022-07-29T18:11:07.037Z,4.55
2022-07-29T18:13:33.730Z,4.45
2022-07-29T18:16:00.966Z,4.90
2022-07-29T18:18:27.821Z,4.30
2022-07-29T18:20:54.448Z,4.40
2022-07-29T18:23:21.376Z,4.78
2022-07-29T18:25:48.038Z,4.15
2022-07-29T18:28:14.827Z,4.50
2022-07-29T18:30:41.620Z,4.35
2022-07-29T18:33:22.773Z,4.43
2022-07-29T18:35:51.024Z,4.65
2022-07-29T18:38:17.754Z,4.10
2022-07-29T18:40:45.884Z,4.30
2022-07-29T18:43:12.849Z,4.20
2022-07-29T18:45:39.707Z,4.68
2022-07-29T18:48:08.470Z,4.68
2022-07-29T18:50:40.512Z,5.13
2022-07-29T18:53:07.225Z,4.15
2022-07-29T18:55:33.939Z,4.53
2022-07-29T18:58:00.567Z,4.80
2022-07-29T19:00:27.423Z,4.30
2022-07-29T19:02:54.261Z,4.25
2022-07-29T19:05:21.541Z,4.30
2022-07-29T19:07:48.294Z,4.22
2022-07-29T19:10:14.969Z,4.15
2022-07-29T19:12:41.681Z,5.18
2022-07-29T19:15:10.415Z,4.50
2022-07-29T19:17:37.124Z,4.47
2022-07-29T19:20:04.176Z,4.38
2022-07-29T19:22:31.148Z,5.53
2022-07-29T19:24:57.873Z,4.38
2022-07-29T19:27:24.487Z,4.50
2022-07-29T19:29:51.116Z,4.70
2022-07-29T19:32:24.817Z,5.45
2022-07-29T19:35:11.239Z,4.38
2022-07-29T19:37:37.885Z,5.15
2022-07-29T19:40:05.798Z,4.95
2022-07-29T19:42:32.573Z,4.85
2022-07-29T19:44:59.195Z,4.72
2022-07-29T19:47:25.882Z,5.22
2022-07-29T19:49:52.514Z,5.60
2022-07-29T19:52:19.135Z,4.57
2022-07-29T19:54:45.716Z,5.10
2022-07-29T19:57:12.323Z,5.22
2022-07-29T19:59:38.967Z,4.97
2022-07-29T20:02:05.857Z,4.68
2022-07-29T20:04:32.539Z,5.47
2022-07-29T20:07:01.895Z,5.53
2022-07-29T20:09:28.892Z,5.15
2022-07-29T20:11:55.491Z,4.82
2022-07-29T20:14:22.494Z,4.95
2022-07-29T20:16:50.020Z,5.35
2022-07-29T20:19:17.158Z,5.07
2022-07-29T20:21:43.720Z,5.40
2022-07-29T20:24:10.540Z,5.68
2022-07-29T20:26:37.260Z,4.95
2022-07-29T20:29:05.414Z,4.97
2022-07-29T20:31:32.828Z,5.32
2022-07-29T20:34:00.381Z,4.85
2022-07-29T20:36:27.527Z,5.13
2022-07-29T20:38:55.114Z,5.45
2022-07-29T20:41:21.953Z,5.22
2022-07-29T20:43:49.901Z,5.32
2022-07-29T20:46:16.724Z,4.88
2022-07-29T20:48:43.571Z,4.78
2022-07-29T20:51:10.367Z,5.15
2022-07-29T20:53:40.747Z,5.00
2022-07-29T20:56:07.661Z,4.93
2022-07-29T20:58:34.713Z,4.55
2022-07-29T21:01:01.325Z,4.63
2022-07-29T21:03:27.984Z,5.03
2022-07-29T21:05:54.558Z,4.85
2022-07-29T21:08:21.224Z,4.80
2022-07-29T21:10:48.594Z,5.10
2022-07-29T21:13:15.285Z,5.18
2022-07-29T21:15:45.488Z,5.30
2022-07-29T21:18:32.557Z,5.15
2022-07-29T21:21:02.297Z,5.45
2022-07-29T21:23:29.029Z,6.35
2022-07-29T21:25:55.931Z,6.25
2022-07-29T21:28:30.648Z,6.00
2022-07-29T21:30:59.026Z,6.78
2022-07-29T21:33:26.508Z,6.45
2022-07-29T21:38:39.958Z,6.18
2022-07-29T21:41:06.726Z,6.30
2022-07-29T21:43:33.419Z,6.32
2022-07-29T21:46:00.733Z,6.30
2022-07-29T21:48:28.696Z,6.60
2022-07-29T21:50:55.598Z,6.25
2022-07-29T21:53:22.986Z,6.20
2022-07-29T21:55:51.791Z,6.38
2022-07-29T21:58:22.065Z,6.28
2022-07-29T22:00:49.092Z,5.80
2022-07-29T22:03:15.723Z,6.20
2022-07-29T22:05:42.546Z,6.25
2022-07-29T22:08:09.169Z,6.28
2022-07-29T22:10:36.080Z,6.10
2022-07-29T22:13:03.547Z,5.70
2022-07-29T22:15:30.635Z,6.15
2022-07-29T22:17:57.895Z,6.00
2022-07-29T22:20:24.583Z,6.40
2022-07-29T22:22:51.223Z,5.25
2022-07-29T22:25:17.908Z,5.90
2022-07-29T22:27:44.527Z,5.63
2022-07-29T22:30:11.922Z,5.60
2022-07-29T22:32:38.624Z,6.00
2022-07-29T22:35:05.649Z,5.70
2022-07-29T22:37:32.530Z,5.68
2022-07-29T22:39:59.285Z,6.57
2022-07-29T22:42:25.962Z,5.30
2022-07-29T22:44:52.666Z,5.97
2022-07-29T22:47:45.845Z,5.60
2022-07-29T22:50:06.439Z,6.13
2022-07-29T22:52:33.028Z,5.72
2022-07-29T22:54:59.689Z,5.57
2022-07-29T22:57:26.380Z,5.90
2022-07-29T22:59:52.986Z,5.63
2022-07-29T23:02:19.550Z,5.22
2022-07-29T23:04:46.171Z,5.00
2022-07-29T23:07:12.789Z,5.63
2022-07-29T23:09:39.483Z,5.65
2022-07-29T23:12:06.391Z,5.65
2022-07-29T23:14:33.002Z,5.85
2022-07-29T23:17:00.028Z,5.60
2022-07-29T23:19:27.442Z,5.60
2022-07-29T23:21:54.116Z,6.00
2022-07-29T23:24:20.768Z,6.80
2022-07-29T23:26:47.389Z,5.85
2022-07-29T23:29:14.014Z,7.47
2022-07-29T23:31:41.894Z,6.20
2022-07-29T23:34:14.545Z,5.75
2022-07-29T23:36:42.404Z,6.00
2022-07-29T23:39:13.331Z,6.25
2022-07-29T23:41:40.058Z,5.55
2022-07-29T23:44:06.708Z,6.55
2022-07-29T23:46:33.409Z,6.35
2022-07-29T23:49:00.284Z,6.82
2022-07-29T23:51:29.037Z,6.65
2022-07-29T23:53:56.174Z,6.18
2022-07-29T23:56:23.245Z,6.00
2022-07-29T23:58:49.946Z,6.35
